Time;durP1;ratioP1;P1;durP2;ratioP2;P2;SDS_P1;SDS_P2;PMS_P1;PMS_P2;Temp;Humidity;BMP_temperature;BMP_pressure;BME280_temperature;BME280_humidity;BME280_pressure;Samples;Min_cycle;Max_cycle;Signal;HPM_P1;HPM_P2
2021/07/20 00:02:09;;;;;;;7.05;3.17;;;;;;;;;;4992578;28;20118;-76
2021/07/20 00:04:34;;;;;;;5.35;3.05;;;;;;;;;;4987929;28;20030;-76
2021/07/20 00:06:59;;;;;;;8.18;3.05;;;;;;;;;;4988533;28;20031;-76
2021/07/20 00:09:25;;;;;;;7.15;3.28;;;;;;;;;;4986072;28;20030;-76
2021/07/20 00:11:50;;;;;;;9.00;3.15;;;;;;;;;;4991297;28;20031;-76
2021/07/20 00:14:16;;;;;;;5.65;3.03;;;;;;;;;;4990654;28;20403;-84
2021/07/20 00:16:41;;;;;;;4.55;2.90;;;;;;;;;;4990065;28;20037;-85
2021/07/20 00:19:07;;;;;;;6.07;3.05;;;;;;;;;;4987438;28;20040;-84
2021/07/20 00:21:32;;;;;;;5.38;2.92;;;;;;;;;;4989118;28;20532;-85
2021/07/20 00:23:58;;;;;;;5.95;3.33;;;;;;;;;;4990715;28;20097;-84
2021/07/20 00:26:23;;;;;;;5.50;2.95;;;;;;;;;;4990761;28;20034;-84
2021/07/20 00:28:49;;;;;;;10.80;4.07;;;;;;;;;;4988545;28;20034;-84
2021/07/20 00:31:14;;;;;;;8.52;3.47;;;;;;;;;;4993664;28;20018;-85
2021/07/20 00:33:40;;;;;;;6.72;3.53;;;;;;;;;;4992731;28;20025;-85
2021/07/20 00:36:07;;;;;;;8.60;3.67;;;;;;;;;;4966115;28;20061;-84
2021/07/20 00:38:33;;;;;;;5.80;3.55;;;;;;;;;;4972507;28;20085;-84
2021/07/20 00:40:58;;;;;;;4.95;3.10;;;;;;;;;;4985586;28;20026;-85
2021/07/20 00:43:24;;;;;;;6.30;3.33;;;;;;;;;;4990336;28;20030;-76
2021/07/20 00:45:49;;;;;;;7.43;3.55;;;;;;;;;;4971987;28;20042;-76
2021/07/20 00:48:14;;;;;;;7.65;4.13;;;;;;;;;;4989197;28;20038;-76
2021/07/20 00:50:43;;;;;;;6.03;4.05;;;;;;;;;;4973235;28;20669;-76
2021/07/20 00:53:11;;;;;;;7.90;3.92;;;;;;;;;;4989374;28;20037;-76
2021/07/20 00:55:37;;;;;;;5.78;3.47;;;;;;;;;;4984873;28;20038;-76
2021/07/20 00:58:11;;;;;;;6.68;3.55;;;;;;;;;;4972284;28;20038;-76
2021/07/20 01:00:36;;;;;;;5.32;4.00;;;;;;;;;;4986205;28;20033;-76
2021/07/20 01:03:02;;;;;;;7.00;4.75;;;;;;;;;;4985893;28;20030;-76
2021/07/20 01:05:29;;;;;;;9.55;4.57;;;;;;;;;;4985663;28;20035;-76
2021/07/20 01:07:55;;;;;;;8.32;4.75;;;;;;;;;;4989455;28;20026;-76
2021/07/20 01:10:22;;;;;;;8.35;4.70;;;;;;;;;;4986910;28;20030;-75
2021/07/20 01:12:49;;;;;;;12.35;4.68;;;;;;;;;;4986587;28;20026;-76
2021/07/20 01:15:16;;;;;;;6.38;4.50;;;;;;;;;;4986433;28;20031;-75
2021/07/20 01:17:45;;;;;;;9.25;4.53;;;;;;;;;;4987010;28;20026;-76
2021/07/20 01:20:16;;;;;;;8.07;5.68;;;;;;;;;;4987445;28;20022;-75
2021/07/20 01:22:51;;;;;;;8.03;4.77;;;;;;;;;;4989039;28;20448;-76
2021/07/20 01:25:17;;;;;;;7.80;4.70;;;;;;;;;;4985328;28;20287;-75
2021/07/20 01:27:48;;;;;;;8.25;5.10;;;;;;;;;;4988154;28;20393;-76
2021/07/20 01:30:15;;;;;;;7.83;4.07;;;;;;;;;;4979422;28;20049;-76
2021/07/20 01:32:42;;;;;;;10.18;5.22;;;;;;;;;;4988974;28;20099;-75
2021/07/20 01:35:10;;;;;;;11.32;4.30;;;;;;;;;;4988225;28;20033;-75
2021/07/20 01:37:37;;;;;;;7.82;4.28;;;;;;;;;;4986408;28;20026;-76
2021/07/20 01:40:04;;;;;;;8.15;4.40;;;;;;;;;;4987564;28;20033;-76
2021/07/20 01:42:29;;;;;;;8.23;4.15;;;;;;;;;;4981307;28;20038;-75
2021/07/20 01:44:56;;;;;;;8.02;4.30;;;;;;;;;;4989289;28;20125;-75
2021/07/20 01:47:25;;;;;;;6.72;4.05;;;;;;;;;;4988659;28;20034;-75
2021/07/20 01:49:51;;;;;;;6.50;4.03;;;;;;;;;;4987892;28;20084;-76
2021/07/20 01:52:17;;;;;;;6.22;3.90;;;;;;;;;;4988071;28;20030;-75
2021/07/20 01:54:44;;;;;;;7.38;4.43;;;;;;;;;;4986824;28;20801;-76
2021/07/20 01:57:11;;;;;;;8.63;4.40;;;;;;;;;;4988138;28;20398;-76
2021/07/20 01:59:39;;;;;;;7.28;4.15;;;;;;;;;;4984975;28;20088;-76
2021/07/20 02:02:25;;;;;;;6.47;3.92;;;;;;;;;;4988531;28;20107;-76
2021/07/20 02:08:24;;;;;;;5.38;3.70;;;;;;;;;;4989562;28;20092;-76
2021/07/20 02:10:22;;;;;;;9.48;5.03;;;;;;;;;;4987137;28;20045;-75
2021/07/20 02:12:48;;;;;;;12.07;4.90;;;;;;;;;;4978873;28;20397;-84
2021/07/20 02:15:14;;;;;;;9.10;4.80;;;;;;;;;;4991930;28;20030;-85
2021/07/20 02:17:41;;;;;;;8.50;4.68;;;;;;;;;;4988378;28;20034;-85
2021/07/20 02:20:10;;;;;;;9.25;5.22;;;;;;;;;;4991830;28;20034;-85
2021/07/20 02:22:38;;;;;;;11.75;5.30;;;;;;;;;;4992715;28;20042;-85
2021/07/20 02:25:05;;;;;;;11.05;4.75;;;;;;;;;;4987871;28;20074;-85
2021/07/20 02:27:31;;;;;;;10.32;5.07;;;;;;;;;;4986606;28;20034;-84
2021/07/20 02:30:01;;;;;;;10.07;5.30;;;;;;;;;;4973918;28;20049;-85
2021/07/20 02:32:29;;;;;;;9.55;4.90;;;;;;;;;;4990735;28;20037;-85
2021/07/20 02:34:57;;;;;;;10.95;4.80;;;;;;;;;;4984060;28;20460;-85
2021/07/20 02:37:23;;;;;;;7.85;5.30;;;;;;;;;;4989969;28;20081;-85
2021/07/20 02:39:49;;;;;;;8.18;4.70;;;;;;;;;;5011739;28;20086;-85
2021/07/20 02:42:17;;;;;;;11.18;5.03;;;;;;;;;;4993020;28;20062;-84
2021/07/20 02:44:44;;;;;;;7.75;4.80;;;;;;;;;;5002306;28;20490;-84
2021/07/20 02:47:10;;;;;;;9.88;4.88;;;;;;;;;;4985032;28;20086;-84
2021/07/20 02:49:38;;;;;;;7.07;4.75;;;;;;;;;;4987834;28;20038;-84
2021/07/20 02:52:06;;;;;;;11.02;5.13;;;;;;;;;;5006339;28;20074;-85
2021/07/20 02:54:32;;;;;;;7.07;4.72;;;;;;;;;;4991725;28;20026;-75
2021/07/20 02:56:58;;;;;;;12.68;5.35;;;;;;;;;;4991679;28;20037;-76
2021/07/20 02:59:26;;;;;;;8.75;4.57;;;;;;;;;;4983565;28;20711;-76
2021/07/20 03:01:55;;;;;;;9.93;5.05;;;;;;;;;;4986570;28;20077;-75
2021/07/20 03:04:22;;;;;;;9.23;4.68;;;;;;;;;;4979945;28;20070;-75
2021/07/20 03:06:51;;;;;;;8.75;5.03;;;;;;;;;;4990955;28;20091;-75
2021/07/20 03:09:20;;;;;;;8.60;5.00;;;;;;;;;;4981148;28;20035;-77
2021/07/20 03:11:49;;;;;;;10.77;5.03;;;;;;;;;;4988693;28;20085;-76
2021/07/20 03:14:19;;;;;;;9.20;5.28;;;;;;;;;;4987311;28;20018;-76
2021/07/20 03:16:45;;;;;;;10.23;4.88;;;;;;;;;;4987030;28;20053;-76
2021/07/20 03:19:12;;;;;;;12.57;5.28;;;;;;;;;;4989529;28;20120;-75
2021/07/20 03:21:39;;;;;;;9.75;5.03;;;;;;;;;;4984319;28;20065;-76
2021/07/20 03:24:07;;;;;;;8.75;5.20;;;;;;;;;;4979617;28;20517;-76
2021/07/20 03:26:34;;;;;;;9.30;5.13;;;;;;;;;;4989544;28;20044;-76
2021/07/20 03:29:03;;;;;;;8.55;4.75;;;;;;;;;;4984922;28;20041;-76
2021/07/20 03:31:29;;;;;;;8.02;4.85;;;;;;;;;;4991089;28;20026;-76
2021/07/20 03:33:56;;;;;;;6.78;4.65;;;;;;;;;;4988992;28;20593;-75
2021/07/20 03:36:22;;;;;;;10.50;5.38;;;;;;;;;;4988812;28;20113;-75
2021/07/20 03:38:48;;;;;;;7.68;4.93;;;;;;;;;;4983033;28;20524;-76
2021/07/20 03:41:14;;;;;;;11.23;4.85;;;;;;;;;;4987065;28;20045;-76
2021/07/20 03:43:40;;;;;;;7.82;4.93;;;;;;;;;;4973952;28;20026;-76
2021/07/20 03:46:06;;;;;;;10.65;5.25;;;;;;;;;;4993016;28;20034;-76
2021/07/20 03:48:33;;;;;;;13.30;5.32;;;;;;;;;;4987020;28;20042;-75
2021/07/20 03:50:59;;;;;;;12.68;5.18;;;;;;;;;;4990265;28;20452;-76
2021/07/20 03:53:29;;;;;;;15.60;5.00;;;;;;;;;;4989444;28;20030;-77
2021/07/20 03:55:59;;;;;;;15.05;5.18;;;;;;;;;;4988434;28;20038;-75
2021/07/20 03:58:25;;;;;;;9.18;5.07;;;;;;;;;;5002767;28;20022;-75
2021/07/20 04:00:52;;;;;;;9.38;5.28;;;;;;;;;;4990772;28;20032;-75
2021/07/20 04:03:21;;;;;;;9.25;4.78;;;;;;;;;;4985134;28;20093;-75
2021/07/20 04:05:49;;;;;;;8.35;4.72;;;;;;;;;;4989787;28;20034;-75
2021/07/20 04:08:17;;;;;;;11.65;5.50;;;;;;;;;;4989991;28;20042;-75
2021/07/20 04:10:44;;;;;;;9.10;4.78;;;;;;;;;;4990451;28;20236;-77
2021/07/20 04:13:11;;;;;;;7.15;4.72;;;;;;;;;;4986345;28;20084;-74
2021/07/20 04:15:44;;;;;;;10.55;4.30;;;;;;;;;;4988954;28;20037;-77
2021/07/20 04:18:10;;;;;;;9.35;4.63;;;;;;;;;;4988412;28;20032;-77
2021/07/20 04:20:36;;;;;;;8.75;4.80;;;;;;;;;;4986357;28;20057;-76
2021/07/20 04:23:02;;;;;;;8.05;4.30;;;;;;;;;;4989396;28;20045;-76
2021/07/20 04:25:29;;;;;;;8.25;4.20;;;;;;;;;;4988641;28;20014;-76
2021/07/20 04:27:55;;;;;;;7.72;4.13;;;;;;;;;;4984554;28;20494;-76
2021/07/20 04:30:20;;;;;;;9.45;3.90;;;;;;;;;;4982868;28;20042;-76
2021/07/20 04:32:47;;;;;;;7.20;3.78;;;;;;;;;;4981075;28;20050;-76
2021/07/20 04:35:15;;;;;;;5.72;3.33;;;;;;;;;;4983274;28;20073;-76
2021/07/20 04:37:41;;;;;;;8.65;3.70;;;;;;;;;;4989899;28;20501;-76
2021/07/20 04:40:10;;;;;;;6.88;4.75;;;;;;;;;;4971868;28;20416;-76
2021/07/20 04:42:37;;;;;;;9.27;4.38;;;;;;;;;;4987634;28;20516;-77
2021/07/20 04:45:03;;;;;;;10.57;4.70;;;;;;;;;;4988869;28;20026;-77
2021/07/20 04:47:29;;;;;;;12.30;4.55;;;;;;;;;;5002859;28;20089;-76
2021/07/20 04:49:55;;;;;;;5.72;4.10;;;;;;;;;;4998705;28;20031;-76
2021/07/20 04:52:20;;;;;;;10.88;3.95;;;;;;;;;;4969332;28;20129;-85
2021/07/20 04:54:47;;;;;;;8.13;4.00;;;;;;;;;;4990525;28;20046;-85
2021/07/20 04:57:12;;;;;;;8.75;4.25;;;;;;;;;;4990510;28;20578;-85
2021/07/20 04:59:39;;;;;;;6.97;3.63;;;;;;;;;;4988927;28;20038;-85
2021/07/20 05:02:07;;;;;;;6.72;4.47;;;;;;;;;;5005604;28;20068;-85
2021/07/20 05:04:33;;;;;;;6.70;4.35;;;;;;;;;;4977197;28;20085;-85
2021/07/20 05:07:00;;;;;;;9.02;4.10;;;;;;;;;;4990237;28;20034;-84
2021/07/20 05:09:25;;;;;;;10.00;4.03;;;;;;;;;;4986858;28;20033;-86
2021/07/20 05:11:51;;;;;;;5.60;3.70;;;;;;;;;;4988955;28;20042;-85
2021/07/20 05:14:18;;;;;;;5.80;3.78;;;;;;;;;;4984362;28;20109;-85
2021/07/20 05:16:44;;;;;;;9.30;4.05;;;;;;;;;;4989863;28;20072;-85
2021/07/20 05:19:11;;;;;;;5.97;4.18;;;;;;;;;;4988374;28;20545;-85
2021/07/20 05:21:38;;;;;;;9.07;4.20;;;;;;;;;;4970861;28;20082;-85
2021/07/20 05:24:06;;;;;;;11.32;4.53;;;;;;;;;;4977425;28;20034;-76
2021/07/20 05:26:32;;;;;;;7.80;4.53;;;;;;;;;;4989077;28;20038;-75
2021/07/20 05:28:58;;;;;;;8.65;4.63;;;;;;;;;;4979685;28;20042;-76
2021/07/20 05:31:26;;;;;;;7.95;4.18;;;;;;;;;;4989174;28;20034;-76
2021/07/20 05:33:52;;;;;;;6.80;3.85;;;;;;;;;;4989458;28;20030;-76
2021/07/20 05:36:18;;;;;;;8.20;4.13;;;;;;;;;;4975469;28;20030;-75
2021/07/20 05:38:43;;;;;;;11.45;4.43;;;;;;;;;;4989229;28;20025;-76
2021/07/20 05:41:10;;;;;;;9.20;4.45;;;;;;;;;;4984294;28;20069;-76
2021/07/20 05:43:36;;;;;;;8.95;4.50;;;;;;;;;;4991213;28;20033;-76
2021/07/20 05:46:03;;;;;;;9.43;5.18;;;;;;;;;;4993171;28;20026;-76
2021/07/20 05:48:29;;;;;;;10.18;5.50;;;;;;;;;;5008017;28;20054;-76
2021/07/20 05:50:58;;;;;;;10.90;5.40;;;;;;;;;;4988885;28;20034;-76
2021/07/20 05:53:25;;;;;;;8.55;4.60;;;;;;;;;;4991643;28;20449;-85
2021/07/20 05:55:52;;;;;;;9.38;5.60;;;;;;;;;;4992036;28;20026;-84
2021/07/20 05:58:23;;;;;;;7.55;5.05;;;;;;;;;;4990012;28;20018;-85
2021/07/20 06:00:52;;;;;;;15.68;5.22;;;;;;;;;;5009705;28;20002;-85
2021/07/20 06:03:20;;;;;;;7.95;4.90;;;;;;;;;;4992681;28;20046;-85
2021/07/20 06:05:50;;;;;;;9.48;5.38;;;;;;;;;;4992988;28;20040;-86
2021/07/20 06:08:16;;;;;;;7.65;5.00;;;;;;;;;;4991754;28;20027;-85
2021/07/20 06:10:47;;;;;;;11.85;5.65;;;;;;;;;;4975135;28;20068;-86
2021/07/20 06:13:14;;;;;;;14.50;5.28;;;;;;;;;;4991925;28;20030;-84
2021/07/20 06:15:44;;;;;;;9.23;4.95;;;;;;;;;;4992067;28;20050;-85
2021/07/20 06:18:09;;;;;;;12.65;4.82;;;;;;;;;;4992214;28;20113;-85
2021/07/20 06:20:36;;;;;;;7.65;4.95;;;;;;;;;;5008489;28;20525;-86
2021/07/20 06:23:03;;;;;;;7.70;4.68;;;;;;;;;;4993012;28;20026;-76
2021/07/20 06:25:29;;;;;;;7.95;4.50;;;;;;;;;;4988584;28;20059;-76
2021/07/20 06:27:57;;;;;;;9.93;4.53;;;;;;;;;;4992599;28;20038;-76
2021/07/20 06:30:22;;;;;;;6.30;4.03;;;;;;;;;;4974420;28;20040;-75
2021/07/20 06:32:50;;;;;;;8.30;4.70;;;;;;;;;;4983105;28;20417;-76
2021/07/20 06:35:16;;;;;;;7.80;4.68;;;;;;;;;;4992149;28;20523;-76
2021/07/20 06:37:45;;;;;;;5.60;3.72;;;;;;;;;;4988530;28;20114;-75
2021/07/20 06:40:14;;;;;;;9.82;4.57;;;;;;;;;;4991421;28;20030;-76
2021/07/20 06:42:41;;;;;;;12.13;6.07;;;;;;;;;;4992917;28;20025;-75
2021/07/20 06:45:07;;;;;;;7.85;4.18;;;;;;;;;;4990348;28;20030;-75
2021/07/20 06:47:39;;;;;;;11.07;4.28;;;;;;;;;;4990949;28;20038;-76
2021/07/20 06:50:07;;;;;;;9.77;3.83;;;;;;;;;;4989675;28;20026;-76
2021/07/20 06:52:32;;;;;;;8.45;3.60;;;;;;;;;;4985558;28;20043;-75
2021/07/20 06:55:00;;;;;;;6.95;3.33;;;;;;;;;;4991313;28;20045;-75
2021/07/20 06:57:26;;;;;;;7.68;3.15;;;;;;;;;;4990637;28;20038;-75
2021/07/20 06:59:55;;;;;;;7.80;3.05;;;;;;;;;;4983606;28;20461;-76
2021/07/20 07:02:22;;;;;;;6.55;2.80;;;;;;;;;;4977954;28;20045;-76
2021/07/20 07:04:56;;;;;;;5.10;2.65;;;;;;;;;;4989750;28;20080;-75
2021/07/20 07:07:23;;;;;;;7.38;3.13;;;;;;;;;;4989224;28;20088;-75
2021/07/20 07:09:50;;;;;;;6.45;3.20;;;;;;;;;;4958227;28;20457;-75
2021/07/20 07:12:17;;;;;;;8.48;2.70;;;;;;;;;;4990875;28;20109;-75
2021/07/20 07:14:43;;;;;;;5.40;2.58;;;;;;;;;;4991466;28;20034;-75
2021/07/20 07:17:10;;;;;;;5.75;2.85;;;;;;;;;;4990738;28;20088;-75
2021/07/20 07:19:35;;;;;;;6.45;2.90;;;;;;;;;;4984320;28;20105;-75
2021/07/20 07:22:02;;;;;;;7.07;3.08;;;;;;;;;;4988745;28;20058;-75
2021/07/20 07:24:29;;;;;;;12.30;2.70;;;;;;;;;;4972679;28;20035;-75
2021/07/20 07:26:57;;;;;;;6.38;2.97;;;;;;;;;;4961718;28;20042;-75
2021/07/20 07:29:25;;;;;;;3.72;2.80;;;;;;;;;;4989657;28;20022;-74
2021/07/20 07:31:50;;;;;;;8.27;3.70;;;;;;;;;;4985448;28;20013;-75
2021/07/20 07:34:16;;;;;;;10.38;3.50;;;;;;;;;;4988897;28;20042;-74
2021/07/20 07:36:45;;;;;;;7.93;3.75;;;;;;;;;;4984965;28;20109;-75
2021/07/20 07:39:13;;;;;;;13.10;4.07;;;;;;;;;;4985322;28;20116;-74
2021/07/20 07:41:41;;;;;;;6.85;4.15;;;;;;;;;;4973408;28;20036;-77
2021/07/20 07:44:09;;;;;;;13.05;4.03;;;;;;;;;;4989730;28;20039;-77
2021/07/20 07:46:37;;;;;;;10.02;3.83;;;;;;;;;;4990508;28;20057;-75
2021/07/20 07:49:03;;;;;;;8.18;4.13;;;;;;;;;;4990645;28;20686;-77
2021/07/20 07:51:29;;;;;;;8.77;4.10;;;;;;;;;;4983036;28;20087;-76
2021/07/20 07:53:58;;;;;;;15.07;4.80;;;;;;;;;;4989000;28;20117;-83
2021/07/20 07:56:28;;;;;;;9.55;4.60;;;;;;;;;;4989840;28;20030;-83
2021/07/20 07:58:59;;;;;;;9.52;4.65;;;;;;;;;;4988016;28;20085;-83
2021/07/20 08:01:26;;;;;;;12.30;4.68;;;;;;;;;;4986421;28;20031;-84
2021/07/20 08:03:54;;;;;;;7.72;4.40;;;;;;;;;;4989367;28;20034;-83
2021/07/20 08:06:22;;;;;;;9.35;4.22;;;;;;;;;;4991306;28;20478;-84
2021/07/20 08:08:51;;;;;;;8.15;3.83;;;;;;;;;;4990902;28;20460;-83
2021/07/20 08:11:17;;;;;;;8.30;3.55;;;;;;;;;;4981716;28;20027;-83
2021/07/20 08:13:43;;;;;;;10.43;4.25;;;;;;;;;;4969958;28;20037;-83
2021/07/20 08:16:11;;;;;;;8.43;3.50;;;;;;;;;;4982781;28;20102;-84
2021/07/20 08:18:37;;;;;;;12.55;3.30;;;;;;;;;;4987207;28;20022;-83
2021/07/20 08:21:05;;;;;;;3.95;3.15;;;;;;;;;;4989102;28;20057;-82
2021/07/20 08:23:33;;;;;;;7.15;2.85;;;;;;;;;;4989399;28;20030;-75
2021/07/20 08:26:11;;;;;;;7.72;3.70;;;;;;;;;;4988442;28;20556;-75
2021/07/20 08:28:46;;;;;;;9.27;4.05;;;;;;;;;;4988624;28;20069;-75
2021/07/20 08:31:14;;;;;;;11.88;4.35;;;;;;;;;;4987148;28;20046;-75
2021/07/20 08:33:44;;;;;;;10.90;5.20;;;;;;;;;;4987899;28;20026;-75
2021/07/20 08:36:13;;;;;;;17.63;6.07;;;;;;;;;;4989475;28;20026;-75
2021/07/20 08:38:40;;;;;;;13.98;5.93;;;;;;;;;;4989242;28;20034;-74
2021/07/20 08:41:20;;;;;;;15.55;6.57;;;;;;;;;;4989419;28;20117;-75
2021/07/20 08:44:10;;;;;;;13.30;5.45;;;;;;;;;;4988866;28;20099;-74
2021/07/20 08:47:30;;;;;;;11.05;5.00;;;;;;;;;;4988496;28;20029;-74
2021/07/20 08:50:32;;;;;;;23.42;7.22;;;;;;;;;;4950930;28;20121;-74
2021/07/20 08:53:03;;;;;;;;;;;;;;;;;;4980531;28;20111;-74
2021/07/20 08:55:32;;;;;;;19.58;9.32;;;;;;;;;;4980496;28;19921;-74
2021/07/20 08:58:19;;;;;;;19.25;8.82;;;;;;;;;;4987552;28;20092;-74
2021/07/20 09:00:47;;;;;;;21.08;7.18;;;;;;;;;;4980293;28;20037;-74
2021/07/20 09:03:25;;;;;;;22.45;7.38;;;;;;;;;;4986625;28;20026;-75
2021/07/20 09:06:03;;;;;;;20.33;8.50;;;;;;;;;;4989073;28;20053;-75
2021/07/20 09:08:44;;;;;;;18.13;8.40;;;;;;;;;;4989277;28;20089;-74
2021/07/20 09:11:31;;;;;;;23.27;7.90;;;;;;;;;;4976663;28;20483;-76
2021/07/20 09:14:11;;;;;;;18.13;6.93;;;;;;;;;;4984370;28;20030;-75
2021/07/20 09:16:43;;;;;;;15.15;7.60;;;;;;;;;;4992876;28;20060;-75
2021/07/20 09:19:39;;;;;;;17.13;6.32;;;;;;;;;;5009302;28;20110;-74
2021/07/20 09:22:15;;;;;;;13.43;5.85;;;;;;;;;;4977419;28;20068;-74
2021/07/20 09:24:56;;;;;;;18.08;9.38;;;;;;;;;;4994884;28;20034;-74
2021/07/20 09:27:35;;;;;;;30.05;10.63;;;;;;;;;;4990200;28;20030;-74
2021/07/20 09:30:06;;;;;;;16.35;7.22;;;;;;;;;;4992585;28;20026;-75
2021/07/20 09:32:50;;;;;;;11.73;5.93;;;;;;;;;;4991837;28;20026;-75
2021/07/20 09:35:34;;;;;;;13.35;5.47;;;;;;;;;;4989076;28;20153;-75
2021/07/20 09:38:04;;;;;;;16.10;7.00;;;;;;;;;;4991570;28;20495;-75
2021/07/20 09:41:05;;;;;;;14.00;5.55;;;;;;;;;;4991990;28;20030;-75
2021/07/20 09:44:15;;;;;;;15.50;4.90;;;;;;;;;;4990226;28;20085;-75
2021/07/20 09:46:46;;;;;;;12.93;4.43;;;;;;;;;;4986384;28;20520;-76
2021/07/20 09:49:24;;;;;;;5.78;3.33;;;;;;;;;;4991418;28;20031;-75
2021/07/20 09:52:12;;;;;;;9.63;3.33;;;;;;;;;;4992569;28;20035;-75
2021/07/20 09:54:56;;;;;;;5.82;3.95;;;;;;;;;;4994020;28;20029;-75
2021/07/20 09:57:42;;;;;;;11.60;3.25;;;;;;;;;;4992270;28;20014;-75
2021/07/20 10:00:14;;;;;;;9.20;3.35;;;;;;;;;;4991028;28;20045;-75
2021/07/20 10:03:08;;;;;;;7.60;3.40;;;;;;;;;;4992092;28;20108;-75
2021/07/20 10:05:44;;;;;;;10.95;2.92;;;;;;;;;;4991627;28;20034;-74
2021/07/20 10:08:32;;;;;;;5.43;2.90;;;;;;;;;;4988407;28;20035;-75
2021/07/20 10:11:29;;;;;;;10.65;2.60;;;;;;;;;;4981758;28;20100;-75
2021/07/20 10:14:09;;;;;;;5.03;2.53;;;;;;;;;;4988257;28;20433;-76
2021/07/20 10:16:45;;;;;;;7.10;2.35;;;;;;;;;;4996467;28;20062;-75
2021/07/20 10:19:36;;;;;;;8.65;2.25;;;;;;;;;;4984116;28;20029;-74
2021/07/20 10:22:05;;;;;;;7.85;3.08;;;;;;;;;;4968062;28;20116;-73
2021/07/20 10:24:32;;;;;;;8.45;2.40;;;;;;;;;;4989865;28;20038;-74
2021/07/20 10:27:07;;;;;;;7.63;2.10;;;;;;;;;;4992237;28;20105;-74
2021/07/20 10:29:52;;;;;;;5.28;2.50;;;;;;;;;;4986859;28;20039;-74
2021/07/20 10:32:32;;;;;;;5.35;2.13;;;;;;;;;;4990912;28;20026;-74
2021/07/20 10:35:02;;;;;;;6.55;2.28;;;;;;;;;;4989414;28;20030;-74
2021/07/20 10:37:32;;;;;;;6.28;2.10;;;;;;;;;;4983014;28;20018;-75
2021/07/20 10:40:07;;;;;;;12.48;2.67;;;;;;;;;;4997388;28;20449;-75
2021/07/20 10:42:44;;;;;;;4.82;2.53;;;;;;;;;;5006325;28;20113;-75
2021/07/20 10:45:13;;;;;;;3.92;2.30;;;;;;;;;;4991663;28;20113;-75
2021/07/20 10:48:11;;;;;;;6.28;2.30;;;;;;;;;;4991650;28;20037;-74
2021/07/20 10:50:56;;;;;;;6.78;2.15;;;;;;;;;;4988761;28;20026;-74
2021/07/20 10:53:35;;;;;;;7.35;1.77;;;;;;;;;;4992072;28;20034;-74
2021/07/20 10:56:32;;;;;;;4.93;2.13;;;;;;;;;;4985987;28;20034;-74
2021/07/20 10:59:32;;;;;;;6.57;2.17;;;;;;;;;;4988881;28;20091;-74
2021/07/20 11:02:17;;;;;;;4.43;1.98;;;;;;;;;;4982096;28;20118;-74
2021/07/20 11:04:47;;;;;;;7.88;1.90;;;;;;;;;;4987694;28;20043;-75
2021/07/20 11:07:43;;;;;;;8.23;1.95;;;;;;;;;;5002756;28;20081;-74
2021/07/20 11:10:09;;;;;;;4.28;1.38;;;;;;;;;;4988780;28;20053;-74
2021/07/20 11:12:37;;;;;;;6.13;1.98;;;;;;;;;;4989313;28;20030;-74
2021/07/20 11:15:04;;;;;;;3.72;1.77;;;;;;;;;;4990460;28;20034;-74
2021/07/20 11:17:33;;;;;;;7.50;2.00;;;;;;;;;;4982832;28;20026;-75
2021/07/20 11:20:01;;;;;;;6.50;1.92;;;;;;;;;;4990984;28;20101;-74
2021/07/20 11:22:28;;;;;;;7.50;1.63;;;;;;;;;;4991675;28;20050;-74
2021/07/20 11:24:54;;;;;;;5.30;2.00;;;;;;;;;;4991286;28;20045;-75
2021/07/20 11:27:21;;;;;;;5.00;2.13;;;;;;;;;;4991511;28;20030;-75
2021/07/20 11:29:48;;;;;;;6.57;2.03;;;;;;;;;;5006916;28;20497;-76
2021/07/20 11:32:19;;;;;;;8.45;2.15;;;;;;;;;;4989778;28;20037;-83
2021/07/20 11:34:54;;;;;;;5.75;1.80;;;;;;;;;;4990313;28;20037;-83
2021/07/20 11:37:27;;;;;;;4.65;2.15;;;;;;;;;;4987885;28;20037;-82
2021/07/20 11:40:08;;;;;;;6.43;2.15;;;;;;;;;;4982762;28;20030;-83
2021/07/20 11:42:45;;;;;;;6.65;2.20;;;;;;;;;;4989957;28;20022;-81
2021/07/20 11:45:13;;;;;;;7.47;3.03;;;;;;;;;;4990992;28;20030;-82
2021/07/20 11:47:51;;;;;;;3.42;2.22;;;;;;;;;;4991808;28;20026;-81
2021/07/20 11:50:32;;;;;;;8.65;2.20;;;;;;;;;;4990717;28;20733;-82
2021/07/20 11:53:21;;;;;;;2.80;2.03;;;;;;;;;;4981247;28;20041;-82
2021/07/20 11:55:59;;;;;;;7.53;1.98;;;;;;;;;;4962698;28;20038;-81
2021/07/20 11:58:50;;;;;;;4.40;2.22;;;;;;;;;;4992113;28;20105;-83
2021/07/20 12:01:41;;;;;;;5.07;2.00;;;;;;;;;;4995067;28;20027;-82
2021/07/20 12:04:18;;;;;;;5.43;1.83;;;;;;;;;;4986644;28;20034;-75
2021/07/20 12:07:04;;;;;;;4.30;1.83;;;;;;;;;;4990795;28;20026;-75
2021/07/20 12:09:41;;;;;;;7.57;1.90;;;;;;;;;;4987752;28;20204;-74
2021/07/20 12:12:07;;;;;;;8.93;2.28;;;;;;;;;;4987258;28;20022;-75
2021/07/20 12:14:34;;;;;;;6.63;2.10;;;;;;;;;;4990214;28;20524;-75
2021/07/20 12:16:59;;;;;;;6.28;2.08;;;;;;;;;;4987405;28;20074;-75
2021/07/20 12:19:35;;;;;;;2.88;2.03;;;;;;;;;;4988132;28;20046;-75
2021/07/20 12:22:04;;;;;;;7.85;2.00;;;;;;;;;;4990021;28;20525;-75
2021/07/20 12:24:30;;;;;;;2.80;1.77;;;;;;;;;;4990932;28;20487;-75
2021/07/20 12:26:56;;;;;;;4.25;1.88;;;;;;;;;;4990719;28;20030;-75
2021/07/20 12:29:22;;;;;;;7.68;1.88;;;;;;;;;;5005710;28;20074;-75
2021/07/20 12:31:49;;;;;;;5.57;1.77;;;;;;;;;;4984142;28;20034;-75
2021/07/20 12:34:16;;;;;;;7.35;2.03;;;;;;;;;;4987070;28;20035;-75
2021/07/20 12:36:43;;;;;;;7.05;1.98;;;;;;;;;;4983722;28;20034;-75
2021/07/20 12:39:16;;;;;;;3.45;1.90;;;;;;;;;;4985766;28;20450;-75
2021/07/20 12:41:53;;;;;;;7.03;1.85;;;;;;;;;;4984256;28;20116;-75
2021/07/20 12:44:21;;;;;;;4.95;1.60;;;;;;;;;;4989816;28;20026;-75
2021/07/20 12:46:50;;;;;;;3.70;1.52;;;;;;;;;;4988943;28;20073;-76
2021/07/20 12:49:17;;;;;;;4.60;1.52;;;;;;;;;;4988498;28;20046;-76
2021/07/20 12:51:53;;;;;;;3.60;1.67;;;;;;;;;;4973564;28;20065;-74
2021/07/20 12:54:42;;;;;;;15.95;1.73;;;;;;;;;;4979868;28;20094;-75
2021/07/20 12:57:12;;;;;;;6.82;1.70;;;;;;;;;;4983176;28;20022;-74
2021/07/20 12:59:44;;;;;;;6.88;1.83;;;;;;;;;;4985556;28;20030;-74
2021/07/20 13:02:14;;;;;;;6.90;1.50;;;;;;;;;;4985735;28;20117;-74
2021/07/20 13:04:48;;;;;;;2.88;1.40;;;;;;;;;;4990304;28;20031;-81
2021/07/20 13:07:16;;;;;;;6.05;1.77;;;;;;;;;;4988700;28;20064;-81
2021/07/20 13:09:44;;;;;;;4.88;1.70;;;;;;;;;;4989100;28;20035;-81
2021/07/20 13:12:09;;;;;;;2.53;1.58;;;;;;;;;;4989669;28;20030;-82
2021/07/20 13:14:40;;;;;;;5.18;1.48;;;;;;;;;;4970768;28;20463;-83
2021/07/20 13:17:06;;;;;;;3.55;1.20;;;;;;;;;;4987825;28;20105;-83
2021/07/20 13:19:31;;;;;;;3.22;1.63;;;;;;;;;;4988005;28;20113;-83
2021/07/20 13:21:58;;;;;;;6.32;1.50;;;;;;;;;;4990525;28;20424;-82
2021/07/20 13:24:28;;;;;;;6.63;1.65;;;;;;;;;;4990369;28;20125;-82
2021/07/20 13:26:57;;;;;;;4.88;1.60;;;;;;;;;;4991674;28;20109;-82
2021/07/20 13:29:23;;;;;;;7.05;1.33;;;;;;;;;;4987605;28;20440;-82
2021/07/20 13:31:49;;;;;;;5.72;1.52;;;;;;;;;;4990432;28;20121;-82
2021/07/20 13:34:16;;;;;;;5.38;1.45;;;;;;;;;;4982084;28;20027;-75
2021/07/20 13:36:43;;;;;;;9.68;1.80;;;;;;;;;;4988742;28;20022;-75
2021/07/20 13:39:11;;;;;;;8.27;1.58;;;;;;;;;;4989266;28;20661;-75
2021/07/20 13:41:38;;;;;;;5.82;1.60;;;;;;;;;;4984004;28;20045;-75
2021/07/20 13:44:10;;;;;;;4.82;1.70;;;;;;;;;;4985564;28;20061;-74
2021/07/20 13:46:40;;;;;;;6.88;1.63;;;;;;;;;;4989556;28;20509;-75
2021/07/20 13:49:09;;;;;;;4.05;1.30;;;;;;;;;;4990436;28;20449;-75
2021/07/20 13:51:36;;;;;;;6.65;1.42;;;;;;;;;;4989087;28;20034;-75
2021/07/20 13:54:04;;;;;;;3.80;1.45;;;;;;;;;;4986882;28;20088;-75
2021/07/20 13:56:39;;;;;;;4.40;1.58;;;;;;;;;;4989431;28;20022;-75
2021/07/20 13:59:08;;;;;;;2.35;1.55;;;;;;;;;;4982026;28;20026;-75
2021/07/20 14:01:39;;;;;;;5.72;1.67;;;;;;;;;;4993065;28;20045;-75
2021/07/20 14:04:06;;;;;;;3.65;1.65;;;;;;;;;;4988772;28;20023;-76
2021/07/20 14:06:34;;;;;;;2.92;1.38;;;;;;;;;;4994068;28;20125;-76
2021/07/20 14:09:00;;;;;;;3.92;1.38;;;;;;;;;;4986904;28;20034;-76
2021/07/20 14:11:26;;;;;;;10.23;1.55;;;;;;;;;;4991468;28;20390;-75
2021/07/20 14:13:53;;;;;;;4.10;1.70;;;;;;;;;;4991848;28;20038;-74
2021/07/20 14:16:19;;;;;;;5.68;1.50;;;;;;;;;;4992208;28;20034;-74
2021/07/20 14:18:47;;;;;;;4.65;1.85;;;;;;;;;;4981521;28;20027;-75
2021/07/20 14:21:32;;;;;;;7.43;1.83;;;;;;;;;;4991143;28;20054;-75
2021/07/20 14:24:03;;;;;;;8.48;1.65;;;;;;;;;;4992092;28;20783;-74
2021/07/20 14:26:29;;;;;;;8.15;1.67;;;;;;;;;;4989344;28;20030;-75
2021/07/20 14:28:56;;;;;;;4.38;1.50;;;;;;;;;;5007787;28;20080;-75
2021/07/20 14:31:34;;;;;;;5.57;1.60;;;;;;;;;;4992845;28;20022;-75
2021/07/20 14:34:01;;;;;;;6.10;1.70;;;;;;;;;;4991341;28;20041;-83
2021/07/20 14:36:41;;;;;;;5.03;1.20;;;;;;;;;;4975036;28;20041;-83
2021/07/20 14:39:25;;;;;;;4.30;1.40;;;;;;;;;;5007178;28;20039;-84
2021/07/20 14:42:33;;;;;;;7.07;1.50;;;;;;;;;;4985694;28;20109;-84
2021/07/20 14:45:10;;;;;;;7.68;1.60;;;;;;;;;;4983888;28;20038;-83
2021/07/20 14:47:57;;;;;;;3.88;1.52;;;;;;;;;;4982998;28;20086;-84
2021/07/20 14:50:29;;;;;;;4.15;1.40;;;;;;;;;;4987840;28;20401;-83
2021/07/20 14:52:56;;;;;;;6.25;1.70;;;;;;;;;;4991737;28;20092;-82
2021/07/20 14:55:31;;;;;;;9.20;1.50;;;;;;;;;;4991861;28;20057;-82
2021/07/20 14:58:15;;;;;;;3.38;1.60;;;;;;;;;;4992240;28;20038;-83
2021/07/20 15:00:57;;;;;;;8.57;1.63;;;;;;;;;;4991785;28;20493;-82
2021/07/20 15:03:29;;;;;;;3.40;1.48;;;;;;;;;;4991331;28;20034;-75
2021/07/20 15:05:55;;;;;;;5.93;1.65;;;;;;;;;;4989570;28;20026;-75